Aviation Digital Data Service (ADDS)

Output produced by METARs form (1310 UTC 16 July 2019)
found at http://www.aviationweather.gov/metar/data/
 
FCBB 161200Z 24004KT 200V280 6000 BKN017 OVC025 25/20 Q1014 NOSIG
TAF FCBB 161100Z 1612/1718 26004KT 7000 SCT018 
     PROB40 1704/1708 3000 BR
       
FCPP 161200Z 21006KT 7000 FEW013 OVC023 27/22 Q1012 NOSIG
TAF FCPP 161100Z 1612/1712 20004KT 8000 SCT018 
     PROB30 1704/1708 3000 BR